createdAt,value
2024-01-29T06:05:13.095Z,-7.42
2024-01-29T06:15:15.603Z,-6.60
2024-01-29T06:25:21.778Z,-6.23
2024-01-29T06:35:25.227Z,-6.08
2024-01-29T06:45:27.819Z,-5.87
2024-01-29T06:55:30.154Z,-5.75
2024-01-29T07:05:32.537Z,-5.60
2024-01-29T07:15:35.328Z,-5.42
2024-01-29T07:25:41.375Z,-5.32
2024-01-29T07:35:43.738Z,-5.16
2024-01-29T07:45:46.135Z,-4.97
2024-01-29T07:55:48.454Z,-4.71
2024-01-29T08:05:51.016Z,-4.26
2024-01-29T08:15:53.478Z,-3.87
2024-01-29T08:25:55.947Z,-3.32
2024-01-29T08:35:58.535Z,-2.87
2024-01-29T08:46:01.488Z,-2.29
2024-01-29T08:56:08.082Z,-1.56
2024-01-29T09:06:10.495Z,-0.96
2024-01-29T09:16:13.670Z,-0.31
2024-01-29T09:41:00.263Z,1.19
2024-01-29T09:51:04.150Z,1.55
2024-01-29T10:01:10.649Z,2.05
2024-01-29T10:11:13.133Z,2.43
2024-01-29T10:21:15.495Z,2.88
2024-01-29T10:31:17.894Z,3.23
2024-01-29T10:41:22.399Z,3.88
2024-01-29T10:51:25.916Z,4.13
2024-01-29T11:01:29.926Z,4.48
2024-01-29T11:11:32.725Z,4.86
2024-01-29T11:21:35.270Z,5.20
2024-01-29T11:31:43.631Z,5.60
2024-01-29T11:41:50.395Z,5.85
2024-01-29T11:51:55.143Z,6.03
2024-01-29T12:01:58.651Z,6.28
2024-01-29T12:12:01.002Z,6.47
2024-01-29T12:22:03.579Z,6.37
2024-01-29T12:32:10.309Z,6.58
2024-01-29T12:42:15.512Z,6.58
2024-01-29T12:52:18.036Z,6.58
2024-01-29T13:02:22.086Z,6.55
2024-01-29T13:12:24.409Z,6.49
2024-01-29T13:22:26.912Z,6.08
2024-01-29T13:32:29.476Z,5.86
2024-01-29T13:42:32.233Z,5.38
2024-01-29T13:52:34.704Z,4.90
2024-01-29T14:02:37.174Z,4.51
2024-01-29T14:23:42.304Z,4.10
2024-01-29T14:33:45.699Z,3.76
2024-01-29T14:43:48.997Z,3.40
2024-01-29T14:53:51.437Z,2.99
2024-01-29T15:03:53.910Z,2.61
2024-01-29T15:13:56.667Z,2.34
2024-01-29T15:24:00.862Z,2.11
2024-01-29T15:34:03.461Z,1.81
2024-01-29T15:44:05.908Z,1.51
2024-01-29T15:54:08.384Z,1.17
2024-01-29T16:04:12.780Z,0.85
2024-01-29T16:14:15.167Z,0.59
2024-01-29T16:24:17.578Z,0.38
2024-01-29T16:34:21.605Z,0.24
2024-01-29T16:44:23.963Z,-0.05
2024-01-29T16:54:26.580Z,-0.16
2024-01-29T17:04:29.147Z,-0.36
2024-01-29T17:14:31.570Z,-0.53
2024-01-29T17:24:33.962Z,-0.53
2024-01-29T17:34:39.240Z,-0.63
2024-01-29T17:44:41.966Z,-0.82
2024-01-29T17:54:44.347Z,-0.91
2024-01-29T18:04:46.926Z,-1.06
2024-01-29T18:14:49.864Z,-1.13
2024-01-29T18:24:55.405Z,-1.22
2024-01-29T18:34:57.878Z,-1.18
2024-01-29T18:45:00.349Z,-1.30
2024-01-29T18:55:02.955Z,-1.35
2024-01-29T19:05:06.041Z,-1.48
2024-01-29T19:15:09.151Z,-1.52
2024-01-29T19:25:12.216Z,-1.69
2024-01-29T19:35:14.842Z,-1.75
2024-01-29T19:45:17.979Z,-1.76
2024-01-29T19:55:20.406Z,-1.79
2024-01-29T20:05:23.327Z,-1.95
2024-01-29T20:15:25.694Z,-1.99
2024-01-29T20:25:28.083Z,-2.04
2024-01-29T20:35:30.447Z,-2.05
2024-01-29T20:45:33.585Z,-2.16
2024-01-29T20:55:36.103Z,-2.23
2024-01-29T21:10:11.214Z,-2.22
2024-01-29T21:20:14.254Z,-2.08
2024-01-29T21:30:16.589Z,-2.23
2024-01-29T21:40:19.179Z,-2.22
2024-01-29T21:50:21.569Z,-2.31
2024-01-29T22:00:23.926Z,-2.34
2024-01-29T22:10:26.388Z,-2.32
